Back to top

Buffalo, WY weather

Johnson County Airport, Buffalo, WY: 6/27/2022 20:53
Visibility10 statute milesclear sky
View 7-Day Forecast
Area Summary
Sky/CloudsSky Clear
Weather [last 24 hours]None
Pressure30.28 in.Hg (1026 hPa)
3-hour Pressure Tendency0.01772 in.Hg (0.6 hPa) Decreasing or steady, then increasing; or increasing then increasing more rapidly
Dew Point44.1 °F (6.7 °C)
Relative Humidity36.7 %
Temperature72 °F (22.2 °C)red thermometer
Reading TimeMinimum to Maximum Temperature
6-hr ending 6/27@17:5378.1 °F to 84 °F (25.6 °C to 28.9 °C)
6-hr ending 6/27@11:5353.1 °F to 78.1 °F (11.7 °C to 25.6 °C)
6-hr ending 6/27@05:5352 °F to 63 °F (11.1 °C to 17.2 °C)
6-hr ending 6/26@23:5357.9 °F to 73.9 °F (14.4 °C to 23.3 °C)
24-hr ending 6/27@00:5344.1 °F to 75 °F (6.7 °C to 23.9 °C)
Wind3.45 MPH (3 KT) green arrow pointing 337.5 degrees
Wind FromNorth/Northwest (340 Degrees)
Twilight Begins04:49Sunshine Yesterday
Sunrise05:26N/A
Sunset20:54
Twilight Ends21:30
METARKBYG 280253Z AUTO 34003KT 10SM CLR 22/07 A3028 RMK AO2 SLP192 T02220067 53006
Tags: